Login to view Products
 
Monday, April 23, 2018 (22:44 UTC)
Al Maktoum International Airport
Last Updated: 23-Apr-2018 (22:43Z)
Wind Dir/Speed: E at 07 kt
Temperature: 27.4°C
Rel. Humidity: 56 %
Pressure: 1008.3 hPa
Visibility: 10000 m
  • METAR OMDW 232230Z 12008KT CAVOK 27/19 Q1008 NOSIG
  • TAF OMDW 231656Z 2318/2500 10008KT 8000 NSC BECMG 2323/2401 17015KT PROB30 2401/2408 18018G28KT 3000 BLDU BECMG 2409/2411 32015KT BECMG 2416/2418 07005KT=
D:\Input Parser\Destinations\Final\16\OMDWL18001656668257851.txt